sensor_id;sensor_type;location;lat;lon;timestamp;P1;durP1;ratioP1;P2;durP2;ratioP2
5620;SDS011;2832;50.864;12.186;2023-05-29T00:02:01;0.90;;;0.90;;
5620;SDS011;2832;50.864;12.186;2023-05-29T00:04:28;0.90;;;0.90;;
5620;SDS011;2832;50.864;12.186;2023-05-29T00:06:59;0.87;;;0.87;;
5620;SDS011;2832;50.864;12.186;2023-05-29T00:09:26;0.90;;;0.90;;
5620;SDS011;2832;50.864;12.186;2023-05-29T00:11:56;0.90;;;0.90;;
5620;SDS011;2832;50.864;12.186;2023-05-29T00:14:27;0.90;;;0.90;;
5620;SDS011;2832;50.864;12.186;2023-05-29T00:16:55;0.97;;;0.97;;
5620;SDS011;2832;50.864;12.186;2023-05-29T00:19:23;0.80;;;0.80;;
5620;SDS011;2832;50.864;12.186;2023-05-29T00:21:50;0.90;;;0.90;;
5620;SDS011;2832;50.864;12.186;2023-05-29T00:24:19;0.87;;;0.87;;
5620;SDS011;2832;50.864;12.186;2023-05-29T00:26:47;0.90;;;0.90;;
5620;SDS011;2832;50.864;12.186;2023-05-29T00:29:15;0.80;;;0.80;;
5620;SDS011;2832;50.864;12.186;2023-05-29T00:31:47;0.90;;;0.90;;
5620;SDS011;2832;50.864;12.186;2023-05-29T00:34:15;0.90;;;0.90;;
5620;SDS011;2832;50.864;12.186;2023-05-29T00:36:42;0.83;;;0.83;;
5620;SDS011;2832;50.864;12.186;2023-05-29T00:39:10;0.80;;;0.80;;
5620;SDS011;2832;50.864;12.186;2023-05-29T00:41:41;0.80;;;0.80;;
5620;SDS011;2832;50.864;12.186;2023-05-29T00:44:09;0.80;;;0.80;;
5620;SDS011;2832;50.864;12.186;2023-05-29T00:46:37;0.80;;;0.80;;
5620;SDS011;2832;50.864;12.186;2023-05-29T00:49:05;0.80;;;0.80;;
5620;SDS011;2832;50.864;12.186;2023-05-29T00:51:33;0.90;;;0.90;;
5620;SDS011;2832;50.864;12.186;2023-05-29T00:54:03;0.73;;;0.73;;
5620;SDS011;2832;50.864;12.186;2023-05-29T00:56:33;0.80;;;0.80;;
5620;SDS011;2832;50.864;12.186;2023-05-29T00:59:03;0.90;;;0.90;;
5620;SDS011;2832;50.864;12.186;2023-05-29T01:01:31;0.80;;;0.80;;
5620;SDS011;2832;50.864;12.186;2023-05-29T01:03:59;0.80;;;0.80;;
5620;SDS011;2832;50.864;12.186;2023-05-29T01:06:36;0.80;;;0.80;;
5620;SDS011;2832;50.864;12.186;2023-05-29T01:09:04;0.87;;;0.87;;
5620;SDS011;2832;50.864;12.186;2023-05-29T01:11:34;0.80;;;0.80;;
5620;SDS011;2832;50.864;12.186;2023-05-29T01:14:10;0.80;;;0.80;;
5620;SDS011;2832;50.864;12.186;2023-05-29T01:16:55;0.80;;;0.80;;
5620;SDS011;2832;50.864;12.186;2023-05-29T01:19:34;0.90;;;0.90;;
5620;SDS011;2832;50.864;12.186;2023-05-29T01:22:31;0.90;;;0.90;;
5620;SDS011;2832;50.864;12.186;2023-05-29T01:25:11;0.80;;;0.80;;
5620;SDS011;2832;50.864;12.186;2023-05-29T01:27:49;0.80;;;0.80;;
5620;SDS011;2832;50.864;12.186;2023-05-29T01:30:19;0.80;;;0.80;;
5620;SDS011;2832;50.864;12.186;2023-05-29T01:32:48;0.80;;;0.80;;
5620;SDS011;2832;50.864;12.186;2023-05-29T01:35:18;0.80;;;0.80;;
5620;SDS011;2832;50.864;12.186;2023-05-29T01:37:46;0.80;;;0.80;;
5620;SDS011;2832;50.864;12.186;2023-05-29T01:40:15;0.90;;;0.90;;
5620;SDS011;2832;50.864;12.186;2023-05-29T01:42:44;0.80;;;0.80;;
5620;SDS011;2832;50.864;12.186;2023-05-29T01:45:13;0.90;;;0.90;;
5620;SDS011;2832;50.864;12.186;2023-05-29T01:47:43;0.80;;;0.80;;
5620;SDS011;2832;50.864;12.186;2023-05-29T01:50:17;0.90;;;0.90;;
5620;SDS011;2832;50.864;12.186;2023-05-29T01:52:46;0.80;;;0.80;;
5620;SDS011;2832;50.864;12.186;2023-05-29T01:55:20;0.87;;;0.87;;
5620;SDS011;2832;50.864;12.186;2023-05-29T01:57:48;0.90;;;0.90;;
5620;SDS011;2832;50.864;12.186;2023-05-29T02:00:21;0.87;;;0.87;;
5620;SDS011;2832;50.864;12.186;2023-05-29T02:02:49;0.80;;;0.80;;
5620;SDS011;2832;50.864;12.186;2023-05-29T02:05:17;0.80;;;0.80;;
5620;SDS011;2832;50.864;12.186;2023-05-29T02:07:45;0.90;;;0.90;;
5620;SDS011;2832;50.864;12.186;2023-05-29T02:10:13;0.80;;;0.80;;
5620;SDS011;2832;50.864;12.186;2023-05-29T02:12:41;0.90;;;0.90;;
5620;SDS011;2832;50.864;12.186;2023-05-29T02:15:10;0.80;;;0.80;;
5620;SDS011;2832;50.864;12.186;2023-05-29T02:17:39;0.90;;;0.90;;
5620;SDS011;2832;50.864;12.186;2023-05-29T02:20:08;0.80;;;0.80;;
5620;SDS011;2832;50.864;12.186;2023-05-29T02:22:36;0.80;;;0.80;;
5620;SDS011;2832;50.864;12.186;2023-05-29T02:25:07;0.90;;;0.90;;
5620;SDS011;2832;50.864;12.186;2023-05-29T02:27:36;0.87;;;0.87;;
5620;SDS011;2832;50.864;12.186;2023-05-29T02:30:04;0.87;;;0.87;;
5620;SDS011;2832;50.864;12.186;2023-05-29T02:32:33;0.90;;;0.90;;
5620;SDS011;2832;50.864;12.186;2023-05-29T02:35:06;0.90;;;0.90;;
5620;SDS011;2832;50.864;12.186;2023-05-29T02:37:35;0.90;;;0.90;;
5620;SDS011;2832;50.864;12.186;2023-05-29T02:40:03;0.87;;;0.87;;
5620;SDS011;2832;50.864;12.186;2023-05-29T02:42:38;0.90;;;0.90;;
5620;SDS011;2832;50.864;12.186;2023-05-29T02:45:06;0.90;;;0.90;;
5620;SDS011;2832;50.864;12.186;2023-05-29T02:47:35;0.80;;;0.80;;
5620;SDS011;2832;50.864;12.186;2023-05-29T02:50:07;1.00;;;1.00;;
5620;SDS011;2832;50.864;12.186;2023-05-29T02:52:35;0.90;;;0.90;;
5620;SDS011;2832;50.864;12.186;2023-05-29T02:55:03;0.90;;;0.90;;
5620;SDS011;2832;50.864;12.186;2023-05-29T02:57:37;0.87;;;0.87;;
5620;SDS011;2832;50.864;12.186;2023-05-29T03:00:06;0.80;;;0.80;;
5620;SDS011;2832;50.864;12.186;2023-05-29T03:02:41;0.90;;;0.90;;
5620;SDS011;2832;50.864;12.186;2023-05-29T03:05:11;0.90;;;0.90;;
5620;SDS011;2832;50.864;12.186;2023-05-29T03:07:38;0.80;;;0.80;;
5620;SDS011;2832;50.864;12.186;2023-05-29T03:10:09;0.80;;;0.80;;
5620;SDS011;2832;50.864;12.186;2023-05-29T03:12:43;0.90;;;0.90;;
5620;SDS011;2832;50.864;12.186;2023-05-29T03:15:11;0.80;;;0.80;;
5620;SDS011;2832;50.864;12.186;2023-05-29T03:17:40;0.80;;;0.80;;
5620;SDS011;2832;50.864;12.186;2023-05-29T03:20:08;0.80;;;0.80;;
5620;SDS011;2832;50.864;12.186;2023-05-29T03:22:39;0.90;;;0.90;;
5620;SDS011;2832;50.864;12.186;2023-05-29T03:25:07;0.80;;;0.80;;
5620;SDS011;2832;50.864;12.186;2023-05-29T03:27:36;0.80;;;0.80;;
5620;SDS011;2832;50.864;12.186;2023-05-29T03:30:05;0.83;;;0.83;;
5620;SDS011;2832;50.864;12.186;2023-05-29T03:32:36;0.90;;;0.90;;
5620;SDS011;2832;50.864;12.186;2023-05-29T03:35:04;0.90;;;0.90;;
5620;SDS011;2832;50.864;12.186;2023-05-29T03:37:34;0.80;;;0.80;;
5620;SDS011;2832;50.864;12.186;2023-05-29T03:40:03;0.90;;;0.90;;
5620;SDS011;2832;50.864;12.186;2023-05-29T03:42:31;0.80;;;0.80;;
5620;SDS011;2832;50.864;12.186;2023-05-29T03:44:59;0.90;;;0.90;;
5620;SDS011;2832;50.864;12.186;2023-05-29T03:47:28;0.90;;;0.90;;
5620;SDS011;2832;50.864;12.186;2023-05-29T03:49:59;0.90;;;0.90;;
5620;SDS011;2832;50.864;12.186;2023-05-29T03:52:31;0.90;;;0.90;;
5620;SDS011;2832;50.864;12.186;2023-05-29T03:55:01;0.90;;;0.90;;
5620;SDS011;2832;50.864;12.186;2023-05-29T03:57:31;0.90;;;0.90;;
5620;SDS011;2832;50.864;12.186;2023-05-29T04:00:01;0.97;;;0.97;;
5620;SDS011;2832;50.864;12.186;2023-05-29T04:02:30;0.87;;;0.87;;
5620;SDS011;2832;50.864;12.186;2023-05-29T04:04:59;0.90;;;0.90;;
5620;SDS011;2832;50.864;12.186;2023-05-29T04:07:27;0.90;;;0.90;;
5620;SDS011;2832;50.864;12.186;2023-05-29T04:09:57;0.90;;;0.90;;
5620;SDS011;2832;50.864;12.186;2023-05-29T04:12:25;0.90;;;0.90;;
5620;SDS011;2832;50.864;12.186;2023-05-29T04:14:53;0.90;;;0.90;;
5620;SDS011;2832;50.864;12.186;2023-05-29T04:17:21;0.90;;;0.90;;
5620;SDS011;2832;50.864;12.186;2023-05-29T04:19:49;0.90;;;0.90;;
5620;SDS011;2832;50.864;12.186;2023-05-29T04:22:17;0.90;;;0.90;;
5620;SDS011;2832;50.864;12.186;2023-05-29T04:24:46;1.00;;;1.00;;
5620;SDS011;2832;50.864;12.186;2023-05-29T04:27:16;0.83;;;0.83;;
5620;SDS011;2832;50.864;12.186;2023-05-29T04:29:44;0.90;;;0.90;;
5620;SDS011;2832;50.864;12.186;2023-05-29T04:32:13;1.00;;;1.00;;
5620;SDS011;2832;50.864;12.186;2023-05-29T04:34:41;0.90;;;0.90;;
5620;SDS011;2832;50.864;12.186;2023-05-29T04:37:10;0.90;;;0.90;;
5620;SDS011;2832;50.864;12.186;2023-05-29T04:39:39;0.80;;;0.80;;
5620;SDS011;2832;50.864;12.186;2023-05-29T04:42:09;0.80;;;0.80;;
5620;SDS011;2832;50.864;12.186;2023-05-29T04:44:43;0.90;;;0.90;;
5620;SDS011;2832;50.864;12.186;2023-05-29T04:47:12;0.80;;;0.80;;
5620;SDS011;2832;50.864;12.186;2023-05-29T04:49:44;0.90;;;0.90;;
5620;SDS011;2832;50.864;12.186;2023-05-29T04:52:17;0.90;;;0.90;;
5620;SDS011;2832;50.864;12.186;2023-05-29T04:54:46;0.90;;;0.90;;
5620;SDS011;2832;50.864;12.186;2023-05-29T04:57:20;0.83;;;0.83;;
5620;SDS011;2832;50.864;12.186;2023-05-29T04:59:51;0.90;;;0.90;;
5620;SDS011;2832;50.864;12.186;2023-05-29T05:02:21;0.77;;;0.77;;
5620;SDS011;2832;50.864;12.186;2023-05-29T05:04:49;0.90;;;0.90;;
5620;SDS011;2832;50.864;12.186;2023-05-29T05:07:17;1.00;;;1.00;;
5620;SDS011;2832;50.864;12.186;2023-05-29T05:09:46;0.90;;;0.90;;
5620;SDS011;2832;50.864;12.186;2023-05-29T05:12:15;0.90;;;0.90;;
5620;SDS011;2832;50.864;12.186;2023-05-29T05:14:42;0.90;;;0.90;;
5620;SDS011;2832;50.864;12.186;2023-05-29T05:17:12;0.90;;;0.90;;
5620;SDS011;2832;50.864;12.186;2023-05-29T05:19:42;0.90;;;0.90;;
5620;SDS011;2832;50.864;12.186;2023-05-29T05:22:11;0.90;;;0.90;;
5620;SDS011;2832;50.864;12.186;2023-05-29T05:24:40;0.90;;;0.90;;
5620;SDS011;2832;50.864;12.186;2023-05-29T05:27:10;0.90;;;0.90;;
5620;SDS011;2832;50.864;12.186;2023-05-29T05:29:38;0.90;;;0.90;;
5620;SDS011;2832;50.864;12.186;2023-05-29T05:32:08;0.90;;;0.90;;
5620;SDS011;2832;50.864;12.186;2023-05-29T05:34:39;0.90;;;0.90;;
5620;SDS011;2832;50.864;12.186;2023-05-29T05:37:07;0.90;;;0.90;;
5620;SDS011;2832;50.864;12.186;2023-05-29T05:39:36;0.80;;;0.80;;
5620;SDS011;2832;50.864;12.186;2023-05-29T05:42:04;0.90;;;0.90;;
5620;SDS011;2832;50.864;12.186;2023-05-29T05:44:32;0.90;;;0.90;;
5620;SDS011;2832;50.864;12.186;2023-05-29T05:47:01;0.80;;;0.80;;
5620;SDS011;2832;50.864;12.186;2023-05-29T05:49:35;0.90;;;0.90;;
5620;SDS011;2832;50.864;12.186;2023-05-29T05:52:09;0.87;;;0.87;;
5620;SDS011;2832;50.864;12.186;2023-05-29T05:54:45;0.90;;;0.90;;
5620;SDS011;2832;50.864;12.186;2023-05-29T05:57:17;0.83;;;0.83;;
5620;SDS011;2832;50.864;12.186;2023-05-29T05:59:46;0.80;;;0.80;;
5620;SDS011;2832;50.864;12.186;2023-05-29T06:02:14;1.00;;;1.00;;
5620;SDS011;2832;50.864;12.186;2023-05-29T06:04:56;1.00;;;1.00;;
5620;SDS011;2832;50.864;12.186;2023-05-29T06:07:29;0.90;;;0.90;;
5620;SDS011;2832;50.864;12.186;2023-05-29T06:09:59;0.80;;;0.80;;
5620;SDS011;2832;50.864;12.186;2023-05-29T06:12:36;0.90;;;0.90;;
5620;SDS011;2832;50.864;12.186;2023-05-29T06:15:05;0.90;;;0.90;;
5620;SDS011;2832;50.864;12.186;2023-05-29T06:17:34;0.90;;;0.90;;
5620;SDS011;2832;50.864;12.186;2023-05-29T06:20:03;0.90;;;0.90;;
5620;SDS011;2832;50.864;12.186;2023-05-29T06:22:38;0.90;;;0.90;;
5620;SDS011;2832;50.864;12.186;2023-05-29T06:25:07;0.90;;;0.90;;
5620;SDS011;2832;50.864;12.186;2023-05-29T06:27:37;0.90;;;0.90;;
5620;SDS011;2832;50.864;12.186;2023-05-29T06:30:14;1.00;;;1.00;;
5620;SDS011;2832;50.864;12.186;2023-05-29T06:32:45;0.90;;;0.90;;
5620;SDS011;2832;50.864;12.186;2023-05-29T06:35:16;0.90;;;0.90;;
5620;SDS011;2832;50.864;12.186;2023-05-29T06:37:52;0.93;;;0.93;;
5620;SDS011;2832;50.864;12.186;2023-05-29T06:40:21;0.90;;;0.90;;
5620;SDS011;2832;50.864;12.186;2023-05-29T06:42:50;0.90;;;0.90;;
5620;SDS011;2832;50.864;12.186;2023-05-29T06:45:18;0.90;;;0.90;;
5620;SDS011;2832;50.864;12.186;2023-05-29T06:47:47;0.90;;;0.90;;
5620;SDS011;2832;50.864;12.186;2023-05-29T06:50:15;0.90;;;0.90;;
5620;SDS011;2832;50.864;12.186;2023-05-29T06:52:44;0.80;;;0.80;;
5620;SDS011;2832;50.864;12.186;2023-05-29T06:55:18;0.90;;;0.90;;
5620;SDS011;2832;50.864;12.186;2023-05-29T06:57:50;0.90;;;0.90;;
5620;SDS011;2832;50.864;12.186;2023-05-29T07:00:26;0.90;;;0.90;;
5620;SDS011;2832;50.864;12.186;2023-05-29T07:02:56;0.90;;;0.90;;
5620;SDS011;2832;50.864;12.186;2023-05-29T07:05:24;0.90;;;0.90;;
5620;SDS011;2832;50.864;12.186;2023-05-29T07:07:54;0.80;;;0.80;;
5620;SDS011;2832;50.864;12.186;2023-05-29T07:10:28;0.90;;;0.90;;
5620;SDS011;2832;50.864;12.186;2023-05-29T07:12:58;0.90;;;0.90;;
5620;SDS011;2832;50.864;12.186;2023-05-29T07:15:31;0.90;;;0.90;;
5620;SDS011;2832;50.864;12.186;2023-05-29T07:18:05;0.90;;;0.90;;
5620;SDS011;2832;50.864;12.186;2023-05-29T07:20:33;0.90;;;0.90;;
5620;SDS011;2832;50.864;12.186;2023-05-29T07:23:01;0.90;;;0.90;;
5620;SDS011;2832;50.864;12.186;2023-05-29T07:25:40;0.97;;;0.97;;
5620;SDS011;2832;50.864;12.186;2023-05-29T07:28:10;0.90;;;0.90;;
5620;SDS011;2832;50.864;12.186;2023-05-29T07:30:45;0.90;;;0.90;;
5620;SDS011;2832;50.864;12.186;2023-05-29T07:33:13;0.90;;;0.90;;
5620;SDS011;2832;50.864;12.186;2023-05-29T07:35:41;1.00;;;1.00;;
5620;SDS011;2832;50.864;12.186;2023-05-29T07:38:10;0.90;;;0.90;;
5620;SDS011;2832;50.864;12.186;2023-05-29T07:40:37;0.90;;;0.90;;
5620;SDS011;2832;50.864;12.186;2023-05-29T07:43:06;0.90;;;0.90;;
5620;SDS011;2832;50.864;12.186;2023-05-29T07:45:37;1.00;;;1.00;;
5620;SDS011;2832;50.864;12.186;2023-05-29T07:48:08;0.90;;;0.90;;
5620;SDS011;2832;50.864;12.186;2023-05-29T07:50:41;0.80;;;0.80;;
5620;SDS011;2832;50.864;12.186;2023-05-29T07:53:09;1.00;;;1.00;;
5620;SDS011;2832;50.864;12.186;2023-05-29T07:55:47;0.90;;;0.90;;
5620;SDS011;2832;50.864;12.186;2023-05-29T07:58:31;0.83;;;0.83;;
5620;SDS011;2832;50.864;12.186;2023-05-29T08:01:12;0.90;;;0.90;;
5620;SDS011;2832;50.864;12.186;2023-05-29T08:03:42;0.90;;;0.90;;
5620;SDS011;2832;50.864;12.186;2023-05-29T08:06:12;0.90;;;0.90;;
5620;SDS011;2832;50.864;12.186;2023-05-29T08:08:43;0.90;;;0.90;;
5620;SDS011;2832;50.864;12.186;2023-05-29T08:11:26;0.90;;;0.90;;
5620;SDS011;2832;50.864;12.186;2023-05-29T08:14:04;0.90;;;0.90;;
5620;SDS011;2832;50.864;12.186;2023-05-29T08:16:40;0.90;;;0.90;;
5620;SDS011;2832;50.864;12.186;2023-05-29T08:19:14;0.80;;;0.80;;
5620;SDS011;2832;50.864;12.186;2023-05-29T08:21:50;0.90;;;0.90;;
5620;SDS011;2832;50.864;12.186;2023-05-29T08:24:18;0.90;;;0.90;;
5620;SDS011;2832;50.864;12.186;2023-05-29T08:26:49;0.90;;;0.90;;
5620;SDS011;2832;50.864;12.186;2023-05-29T08:29:23;0.90;;;0.90;;
5620;SDS011;2832;50.864;12.186;2023-05-29T08:31:59;0.90;;;0.90;;
5620;SDS011;2832;50.864;12.186;2023-05-29T08:34:41;0.90;;;0.90;;
5620;SDS011;2832;50.864;12.186;2023-05-29T08:37:58;0.90;;;0.90;;
5620;SDS011;2832;50.864;12.186;2023-05-29T08:40:35;0.90;;;0.90;;
5620;SDS011;2832;50.864;12.186;2023-05-29T08:43:18;0.90;;;0.90;;
5620;SDS011;2832;50.864;12.186;2023-05-29T08:45:52;0.80;;;0.80;;
5620;SDS011;2832;50.864;12.186;2023-05-29T08:48:22;0.90;;;0.90;;
5620;SDS011;2832;50.864;12.186;2023-05-29T08:50:56;0.90;;;0.90;;
5620;SDS011;2832;50.864;12.186;2023-05-29T08:53:46;1.00;;;1.00;;
5620;SDS011;2832;50.864;12.186;2023-05-29T08:56:21;0.90;;;0.90;;
5620;SDS011;2832;50.864;12.186;2023-05-29T08:58:53;0.90;;;0.90;;
5620;SDS011;2832;50.864;12.186;2023-05-29T09:01:27;1.00;;;1.00;;
5620;SDS011;2832;50.864;12.186;2023-05-29T09:04:05;0.90;;;0.90;;
5620;SDS011;2832;50.864;12.186;2023-05-29T09:06:52;0.90;;;0.90;;
5620;SDS011;2832;50.864;12.186;2023-05-29T09:09:38;0.90;;;0.90;;
5620;SDS011;2832;50.864;12.186;2023-05-29T09:12:26;0.90;;;0.90;;
5620;SDS011;2832;50.864;12.186;2023-05-29T09:15:13;0.90;;;0.90;;
5620;SDS011;2832;50.864;12.186;2023-05-29T09:17:55;0.90;;;0.90;;
5620;SDS011;2832;50.864;12.186;2023-05-29T09:20:37;0.87;;;0.87;;
5620;SDS011;2832;50.864;12.186;2023-05-29T09:23:08;0.90;;;0.90;;
5620;SDS011;2832;50.864;12.186;2023-05-29T09:25:39;0.90;;;0.90;;
5620;SDS011;2832;50.864;12.186;2023-05-29T09:28:14;0.90;;;0.90;;
5620;SDS011;2832;50.864;12.186;2023-05-29T09:30:58;1.00;;;1.00;;
5620;SDS011;2832;50.864;12.186;2023-05-29T09:33:28;0.87;;;0.87;;
5620;SDS011;2832;50.864;12.186;2023-05-29T09:35:57;0.90;;;0.90;;
5620;SDS011;2832;50.864;12.186;2023-05-29T09:38:30;0.90;;;0.90;;
5620;SDS011;2832;50.864;12.186;2023-05-29T09:41:08;0.90;;;0.90;;
5620;SDS011;2832;50.864;12.186;2023-05-29T09:43:56;0.90;;;0.90;;
5620;SDS011;2832;50.864;12.186;2023-05-29T09:46:40;0.90;;;0.90;;
5620;SDS011;2832;50.864;12.186;2023-05-29T09:49:12;0.80;;;0.80;;
5620;SDS011;2832;50.864;12.186;2023-05-29T09:51:49;0.80;;;0.80;;
5620;SDS011;2832;50.864;12.186;2023-05-29T09:54:59;0.70;;;0.70;;
5620;SDS011;2832;50.864;12.186;2023-05-29T09:58:01;0.90;;;0.90;;
5620;SDS011;2832;50.864;12.186;2023-05-29T10:00:59;0.90;;;0.90;;
5620;SDS011;2832;50.864;12.186;2023-05-29T10:03:52;0.90;;;0.90;;
5620;SDS011;2832;50.864;12.186;2023-05-29T10:06:34;0.90;;;0.90;;
5620;SDS011;2832;50.864;12.186;2023-05-29T10:09:15;0.83;;;0.83;;
5620;SDS011;2832;50.864;12.186;2023-05-29T10:11:49;0.90;;;0.90;;
5620;SDS011;2832;50.864;12.186;2023-05-29T10:14:38;0.90;;;0.90;;
5620;SDS011;2832;50.864;12.186;2023-05-29T10:17:26;0.80;;;0.80;;
5620;SDS011;2832;50.864;12.186;2023-05-29T10:20:02;0.90;;;0.90;;
5620;SDS011;2832;50.864;12.186;2023-05-29T10:22:43;0.90;;;0.90;;
5620;SDS011;2832;50.864;12.186;2023-05-29T10:25:42;0.90;;;0.90;;
5620;SDS011;2832;50.864;12.186;2023-05-29T10:28:20;0.90;;;0.90;;
5620;SDS011;2832;50.864;12.186;2023-05-29T10:31:03;0.90;;;0.90;;
5620;SDS011;2832;50.864;12.186;2023-05-29T10:33:48;0.80;;;0.80;;
5620;SDS011;2832;50.864;12.186;2023-05-29T10:36:46;0.90;;;0.90;;
5620;SDS011;2832;50.864;12.186;2023-05-29T10:39:25;0.90;;;0.90;;
5620;SDS011;2832;50.864;12.186;2023-05-29T10:41:55;0.80;;;0.80;;
5620;SDS011;2832;50.864;12.186;2023-05-29T10:44:39;0.90;;;0.90;;
5620;SDS011;2832;50.864;12.186;2023-05-29T10:47:09;0.90;;;0.90;;
5620;SDS011;2832;50.864;12.186;2023-05-29T10:49:54;0.80;;;0.80;;
5620;SDS011;2832;50.864;12.186;2023-05-29T10:52:38;0.90;;;0.90;;
5620;SDS011;2832;50.864;12.186;2023-05-29T10:55:20;0.80;;;0.80;;
5620;SDS011;2832;50.864;12.186;2023-05-29T10:58:05;0.90;;;0.90;;
5620;SDS011;2832;50.864;12.186;2023-05-29T11:00:33;0.90;;;0.90;;
5620;SDS011;2832;50.864;12.186;2023-05-29T11:03:08;0.90;;;0.90;;
5620;SDS011;2832;50.864;12.186;2023-05-29T11:05:55;0.90;;;0.90;;
5620;SDS011;2832;50.864;12.186;2023-05-29T11:08:30;0.90;;;0.90;;
5620;SDS011;2832;50.864;12.186;2023-05-29T11:14:53;0.80;;;0.80;;
5620;SDS011;2832;50.864;12.186;2023-05-29T11:17:46;0.80;;;0.80;;
5620;SDS011;2832;50.864;12.186;2023-05-29T11:20:46;0.87;;;0.87;;
5620;SDS011;2832;50.864;12.186;2023-05-29T11:23:28;0.90;;;0.90;;
5620;SDS011;2832;50.864;12.186;2023-05-29T11:26:07;0.90;;;0.90;;
5620;SDS011;2832;50.864;12.186;2023-05-29T11:28:47;0.80;;;0.80;;
5620;SDS011;2832;50.864;12.186;2023-05-29T11:31:21;0.80;;;0.80;;
5620;SDS011;2832;50.864;12.186;2023-05-29T11:34:09;0.90;;;0.90;;
5620;SDS011;2832;50.864;12.186;2023-05-29T11:37:03;0.90;;;0.90;;
5620;SDS011;2832;50.864;12.186;2023-05-29T11:39:43;0.80;;;0.80;;
5620;SDS011;2832;50.864;12.186;2023-05-29T11:42:15;0.90;;;0.90;;
5620;SDS011;2832;50.864;12.186;2023-05-29T11:44:51;0.90;;;0.90;;
5620;SDS011;2832;50.864;12.186;2023-05-29T11:47:24;0.90;;;0.90;;
5620;SDS011;2832;50.864;12.186;2023-05-29T11:50:00;0.90;;;0.90;;
5620;SDS011;2832;50.864;12.186;2023-05-29T11:52:51;0.90;;;0.90;;
5620;SDS011;2832;50.864;12.186;2023-05-29T11:58:24;0.87;;;0.87;;
5620;SDS011;2832;50.864;12.186;2023-05-29T12:01:24;0.80;;;0.80;;
5620;SDS011;2832;50.864;12.186;2023-05-29T12:04:00;0.80;;;0.80;;
5620;SDS011;2832;50.864;12.186;2023-05-29T12:06:33;0.80;;;0.80;;
5620;SDS011;2832;50.864;12.186;2023-05-29T12:09:09;0.80;;;0.80;;
5620;SDS011;2832;50.864;12.186;2023-05-29T12:12:06;0.90;;;0.90;;
5620;SDS011;2832;50.864;12.186;2023-05-29T12:14:43;0.90;;;0.90;;
5620;SDS011;2832;50.864;12.186;2023-05-29T12:17:28;0.80;;;0.80;;
5620;SDS011;2832;50.864;12.186;2023-05-29T12:24:52;0.90;;;0.90;;
5620;SDS011;2832;50.864;12.186;2023-05-29T12:28:22;0.90;;;0.90;;
5620;SDS011;2832;50.864;12.186;2023-05-29T12:31:14;0.80;;;0.80;;
5620;SDS011;2832;50.864;12.186;2023-05-29T12:34:06;0.80;;;0.80;;
5620;SDS011;2832;50.864;12.186;2023-05-29T12:36:39;0.80;;;0.80;;
5620;SDS011;2832;50.864;12.186;2023-05-29T12:39:13;0.80;;;0.80;;
5620;SDS011;2832;50.864;12.186;2023-05-29T12:42:00;0.80;;;0.80;;
5620;SDS011;2832;50.864;12.186;2023-05-29T12:44:46;0.90;;;0.90;;
5620;SDS011;2832;50.864;12.186;2023-05-29T12:47:23;0.90;;;0.90;;
5620;SDS011;2832;50.864;12.186;2023-05-29T12:50:23;0.80;;;0.80;;
5620;SDS011;2832;50.864;12.186;2023-05-29T12:52:57;0.87;;;0.87;;
5620;SDS011;2832;50.864;12.186;2023-05-29T12:55:27;0.80;;;0.80;;
5620;SDS011;2832;50.864;12.186;2023-05-29T12:57:57;1.00;;;1.00;;
5620;SDS011;2832;50.864;12.186;2023-05-29T13:00:43;0.90;;;0.90;;
5620;SDS011;2832;50.864;12.186;2023-05-29T13:06:25;0.80;;;0.80;;
5620;SDS011;2832;50.864;12.186;2023-05-29T13:08:58;0.90;;;0.90;;
5620;SDS011;2832;50.864;12.186;2023-05-29T13:12:43;0.80;;;0.80;;
5620;SDS011;2832;50.864;12.186;2023-05-29T13:22:21;0.80;;;0.80;;
5620;SDS011;2832;50.864;12.186;2023-05-29T13:25:00;0.80;;;0.80;;
5620;SDS011;2832;50.864;12.186;2023-05-29T13:27:42;0.80;;;0.80;;
5620;SDS011;2832;50.864;12.186;2023-05-29T13:30:50;0.80;;;0.80;;
5620;SDS011;2832;50.864;12.186;2023-05-29T13:33:24;0.80;;;0.80;;
5620;SDS011;2832;50.864;12.186;2023-05-29T13:36:09;0.80;;;0.80;;
5620;SDS011;2832;50.864;12.186;2023-05-29T13:39:00;0.80;;;0.80;;
5620;SDS011;2832;50.864;12.186;2023-05-29T13:41:34;0.90;;;0.90;;
5620;SDS011;2832;50.864;12.186;2023-05-29T13:44:06;0.80;;;0.80;;
5620;SDS011;2832;50.864;12.186;2023-05-29T13:46:45;0.83;;;0.83;;
5620;SDS011;2832;50.864;12.186;2023-05-29T13:49:17;0.80;;;0.80;;
5620;SDS011;2832;50.864;12.186;2023-05-29T13:51:48;0.80;;;0.80;;
5620;SDS011;2832;50.864;12.186;2023-05-29T13:54:30;0.80;;;0.80;;
5620;SDS011;2832;50.864;12.186;2023-05-29T13:57:04;0.90;;;0.90;;
5620;SDS011;2832;50.864;12.186;2023-05-29T13:59:47;0.90;;;0.90;;
5620;SDS011;2832;50.864;12.186;2023-05-29T14:02:44;0.87;;;0.87;;
5620;SDS011;2832;50.864;12.186;2023-05-29T14:05:54;0.90;;;0.90;;
5620;SDS011;2832;50.864;12.186;2023-05-29T14:08:57;0.80;;;0.80;;
5620;SDS011;2832;50.864;12.186;2023-05-29T14:11:45;0.80;;;0.80;;
5620;SDS011;2832;50.864;12.186;2023-05-29T14:14:36;0.80;;;0.80;;
5620;SDS011;2832;50.864;12.186;2023-05-29T14:17:10;0.80;;;0.80;;
5620;SDS011;2832;50.864;12.186;2023-05-29T14:19:46;0.80;;;0.80;;
5620;SDS011;2832;50.864;12.186;2023-05-29T14:22:26;0.80;;;0.80;;
5620;SDS011;2832;50.864;12.186;2023-05-29T14:25:16;0.90;;;0.90;;
5620;SDS011;2832;50.864;12.186;2023-05-29T14:27:53;0.80;;;0.80;;
5620;SDS011;2832;50.864;12.186;2023-05-29T14:30:32;0.80;;;0.80;;
5620;SDS011;2832;50.864;12.186;2023-05-29T14:33:14;0.80;;;0.80;;
5620;SDS011;2832;50.864;12.186;2023-05-29T14:36:31;0.80;;;0.80;;
5620;SDS011;2832;50.864;12.186;2023-05-29T14:39:56;0.90;;;0.90;;
5620;SDS011;2832;50.864;12.186;2023-05-29T14:43:15;0.80;;;0.80;;
5620;SDS011;2832;50.864;12.186;2023-05-29T14:46:14;0.90;;;0.90;;
5620;SDS011;2832;50.864;12.186;2023-05-29T14:49:07;0.80;;;0.80;;
5620;SDS011;2832;50.864;12.186;2023-05-29T14:51:56;0.70;;;0.70;;
5620;SDS011;2832;50.864;12.186;2023-05-29T14:54:38;0.87;;;0.87;;
5620;SDS011;2832;50.864;12.186;2023-05-29T14:57:14;0.80;;;0.80;;
5620;SDS011;2832;50.864;12.186;2023-05-29T15:00:02;0.87;;;0.87;;
5620;SDS011;2832;50.864;12.186;2023-05-29T15:02:42;0.80;;;0.80;;
5620;SDS011;2832;50.864;12.186;2023-05-29T15:05:17;0.80;;;0.80;;
5620;SDS011;2832;50.864;12.186;2023-05-29T15:08:17;0.80;;;0.80;;
5620;SDS011;2832;50.864;12.186;2023-05-29T15:11:28;0.80;;;0.80;;
5620;SDS011;2832;50.864;12.186;2023-05-29T15:14:20;0.80;;;0.80;;
5620;SDS011;2832;50.864;12.186;2023-05-29T15:17:17;0.80;;;0.80;;
5620;SDS011;2832;50.864;12.186;2023-05-29T15:19:47;0.80;;;0.80;;
5620;SDS011;2832;50.864;12.186;2023-05-29T15:22:20;0.70;;;0.70;;
5620;SDS011;2832;50.864;12.186;2023-05-29T15:25:06;0.80;;;0.80;;
5620;SDS011;2832;50.864;12.186;2023-05-29T15:28:17;0.90;;;0.90;;
5620;SDS011;2832;50.864;12.186;2023-05-29T15:31:11;0.80;;;0.80;;
5620;SDS011;2832;50.864;12.186;2023-05-29T15:33:45;0.70;;;0.70;;
5620;SDS011;2832;50.864;12.186;2023-05-29T15:36:19;0.80;;;0.80;;
5620;SDS011;2832;50.864;12.186;2023-05-29T15:38:49;0.70;;;0.70;;
5620;SDS011;2832;50.864;12.186;2023-05-29T15:41:22;0.80;;;0.80;;
5620;SDS011;2832;50.864;12.186;2023-05-29T15:44:02;0.90;;;0.90;;
5620;SDS011;2832;50.864;12.186;2023-05-29T15:46:43;0.10;;;0.10;;
5620;SDS011;2832;50.864;12.186;2023-05-29T15:49:21;0.20;;;0.20;;
5620;SDS011;2832;50.864;12.186;2023-05-29T15:51:52;0.10;;;0.10;;
5620;SDS011;2832;50.864;12.186;2023-05-29T15:54:36;0.10;;;0.10;;
5620;SDS011;2832;50.864;12.186;2023-05-29T15:57:15;0.20;;;0.20;;
5620;SDS011;2832;50.864;12.186;2023-05-29T16:00:15;0.20;;;0.20;;
5620;SDS011;2832;50.864;12.186;2023-05-29T16:03:29;0.80;;;0.80;;
5620;SDS011;2832;50.864;12.186;2023-05-29T16:09:32;0.80;;;0.80;;
5620;SDS011;2832;50.864;12.186;2023-05-29T16:12:06;0.80;;;0.80;;
5620;SDS011;2832;50.864;12.186;2023-05-29T16:14:42;0.80;;;0.80;;
5620;SDS011;2832;50.864;12.186;2023-05-29T16:17:19;0.83;;;0.83;;
5620;SDS011;2832;50.864;12.186;2023-05-29T16:19:51;0.90;;;0.90;;
5620;SDS011;2832;50.864;12.186;2023-05-29T16:22:28;0.80;;;0.80;;